Ohshima Maru — JHAA — position and weather

sailwx.info

Track history (hours):
 
Tides and Currents Weather Stations Pressure Air Temp Water Temp Dewpoint Dewpoint Depression Visibility Wind Speed Wind Dir Waves Ship Positions

Ohshima Maru

Last reported at 2018-Jun-23 02:06 UTC. Time now 2018-Jun-23 11:41 UTC.
Position N 35°06' E 139°44'.

Length 56 m; draft 4.5 m.

Type: Fishing. MMSI: 431832000.

Date/timePositionNaut miles runAvg speedWind from/ knotsBaromVisibWave heightAir tempDewpointWater temp
2018-Jun-23 02:06N 35°06' E 139°44'112.1
2018-Jun-23 01:59N 35°07' E 139°44'611.9
2018-Jun-23 01:30N 35°13' E 139°46'611.4
2018-Jun-23 01:00N 35°18' E 139°44'611.2
2018-Jun-23 00:31N 35°24' E 139°43'612.0
2018-Jun-22 23:59N 35°28' E 139°48'511.1
2018-Jun-22 23:30N 35°33' E 139°50'611.9
2018-Jun-22 23:01N 35°38' E 139°46'  
2018-Jun-17 06:00N 35°39' E 139°46'1 2.9
2018-Jun-17 05:30N 35°38' E 139°46'611.9
2018-Jun-17 05:00N 35°33' E 139°51'510.2
2018-Jun-17 04:30N 35°28' E 139°51'611.9
2018-Jun-17 04:00N 35°24' E 139°46'611.2
2018-Jun-17 03:30N 35°18' E 139°45'510.6
2018-Jun-17 03:00N 35°13' E 139°47'  
2018-Jun-13 05:03N 35°03' E 139°41'112.6
2018-Jun-13 04:58N 35°04' E 139°42'612.6
2018-Jun-13 04:29N 35°10' E 139°45'611.6
2018-Jun-13 04:00N 35°15' E 139°46'611.7
2018-Jun-13 03:30N 35°20' E 139°42'510.8
2018-Jun-13 03:00N 35°25' E 139°44'812.0
2018-Jun-13 02:23N 35°30' E 139°51'  
Track history (hours):
 
Tides and Currents Weather Stations Pressure Air Temp Water Temp Dewpoint Dewpoint Depression Visibility Wind Speed Wind Dir Waves Ship Positions

Ohshima Maru

Last reported at 2018-Jun-23 02:06 UTC. Time now 2018-Jun-23 11:41 UTC.
Position N 35°06' E 139°44'.

Length 56 m; draft 4.5 m.

Type: Fishing. MMSI: 431832000.

Date/timePositionNaut miles runAvg speedWind from/ knotsBaromVisibWave heightAir tempDewpointWater temp
2018-Jun-23 02:06N 35°06' E 139°44'112.1
2018-Jun-23 01:59N 35°07' E 139°44'611.9
2018-Jun-23 01:30N 35°13' E 139°46'611.4
2018-Jun-23 01:00N 35°18' E 139°44'611.2
2018-Jun-23 00:31N 35°24' E 139°43'612.0
2018-Jun-22 23:59N 35°28' E 139°48'511.1
2018-Jun-22 23:30N 35°33' E 139°50'611.9
2018-Jun-22 23:01N 35°38' E 139°46'  
2018-Jun-17 06:00N 35°39' E 139°46'1 2.9
2018-Jun-17 05:30N 35°38' E 139°46'611.9
2018-Jun-17 05:00N 35°33' E 139°51'510.2
2018-Jun-17 04:30N 35°28' E 139°51'611.9
2018-Jun-17 04:00N 35°24' E 139°46'611.2
2018-Jun-17 03:30N 35°18' E 139°45'510.6
2018-Jun-17 03:00N 35°13' E 139°47'  
2018-Jun-13 05:03N 35°03' E 139°41'112.6
2018-Jun-13 04:58N 35°04' E 139°42'612.6
2018-Jun-13 04:29N 35°10' E 139°45'611.6
2018-Jun-13 04:00N 35°15' E 139°46'611.7
2018-Jun-13 03:30N 35°20' E 139°42'510.8
2018-Jun-13 03:00N 35°25' E 139°44'812.0
2018-Jun-13 02:23N 35°30' E 139°51'  

Dump ship's entire track history